sensor_id;sensor_type;location;lat;lon;timestamp;pressure;altitude;pressure_sealevel;temperature;humidity
63405;BME280;49541;57.840;12.306;2023-09-30T00:02:43;100343.91;;;14.61;100.00
63405;BME280;49541;57.840;12.306;2023-09-30T00:07:44;100341.88;;;14.55;100.00
63405;BME280;49541;57.840;12.306;2023-09-30T00:12:44;100352.78;;;14.62;100.00
63405;BME280;49541;57.840;12.306;2023-09-30T00:17:45;100362.97;;;14.58;100.00
63405;BME280;49541;57.840;12.306;2023-09-30T00:22:45;100359.34;;;14.76;100.00
63405;BME280;49541;57.840;12.306;2023-09-30T00:27:46;100357.81;;;14.81;100.00
63405;BME280;49541;57.840;12.306;2023-09-30T00:32:46;100366.06;;;14.96;100.00
63405;BME280;49541;57.840;12.306;2023-09-30T00:37:47;100361.16;;;14.59;100.00
63405;BME280;49541;57.840;12.306;2023-09-30T00:42:47;100369.97;;;14.51;100.00
63405;BME280;49541;57.840;12.306;2023-09-30T00:47:48;100373.00;;;14.48;100.00
63405;BME280;49541;57.840;12.306;2023-09-30T00:52:48;100363.84;;;14.75;100.00
63405;BME280;49541;57.840;12.306;2023-09-30T00:57:48;100368.59;;;14.39;100.00
63405;BME280;49541;57.840;12.306;2023-09-30T01:02:49;100356.06;;;14.47;100.00
63405;BME280;49541;57.840;12.306;2023-09-30T01:07:49;100362.28;;;14.48;100.00
63405;BME280;49541;57.840;12.306;2023-09-30T01:12:49;100364.88;;;14.23;100.00
63405;BME280;49541;57.840;12.306;2023-09-30T01:17:49;100369.38;;;14.23;100.00
63405;BME280;49541;57.840;12.306;2023-09-30T01:22:49;100363.03;;;14.24;100.00
63405;BME280;49541;57.840;12.306;2023-09-30T01:27:50;100352.72;;;14.53;100.00
63405;BME280;49541;57.840;12.306;2023-09-30T01:32:54;100351.19;;;14.43;100.00
63405;BME280;49541;57.840;12.306;2023-09-30T01:37:55;100360.56;;;14.30;100.00
63405;BME280;49541;57.840;12.306;2023-09-30T01:42:55;100362.41;;;14.38;100.00
63405;BME280;49541;57.840;12.306;2023-09-30T01:47:56;100362.88;;;14.25;100.00
63405;BME280;49541;57.840;12.306;2023-09-30T01:52:56;100357.84;;;14.22;100.00
63405;BME280;49541;57.840;12.306;2023-09-30T01:57:56;100360.22;;;14.33;100.00
63405;BME280;49541;57.840;12.306;2023-09-30T02:02:56;100361.25;;;14.49;100.00
63405;BME280;49541;57.840;12.306;2023-09-30T02:07:57;100354.25;;;14.48;100.00
63405;BME280;49541;57.840;12.306;2023-09-30T02:12:57;100362.63;;;14.53;100.00
63405;BME280;49541;57.840;12.306;2023-09-30T02:17:57;100357.09;;;14.54;100.00
63405;BME280;49541;57.840;12.306;2023-09-30T02:22:57;100365.25;;;14.45;100.00
63405;BME280;49541;57.840;12.306;2023-09-30T02:27:59;100381.00;;;14.40;100.00
63405;BME280;49541;57.840;12.306;2023-09-30T02:32:59;100379.34;;;14.47;100.00
63405;BME280;49541;57.840;12.306;2023-09-30T02:37:59;100378.22;;;14.58;100.00
63405;BME280;49541;57.840;12.306;2023-09-30T02:43:00;100379.06;;;14.58;100.00
63405;BME280;49541;57.840;12.306;2023-09-30T02:48:00;100375.66;;;14.40;100.00
63405;BME280;49541;57.840;12.306;2023-09-30T02:53:00;100384.75;;;14.55;100.00
63405;BME280;49541;57.840;12.306;2023-09-30T02:58:01;100383.56;;;14.58;100.00
63405;BME280;49541;57.840;12.306;2023-09-30T03:03:02;100385.38;;;14.49;100.00
63405;BME280;49541;57.840;12.306;2023-09-30T03:08:04;100387.34;;;14.39;100.00
63405;BME280;49541;57.840;12.306;2023-09-30T03:13:04;100385.72;;;14.54;100.00
63405;BME280;49541;57.840;12.306;2023-09-30T03:18:04;100372.06;;;14.65;100.00
63405;BME280;49541;57.840;12.306;2023-09-30T03:23:05;100379.34;;;14.47;100.00
63405;BME280;49541;57.840;12.306;2023-09-30T03:28:05;100386.66;;;14.37;100.00
63405;BME280;49541;57.840;12.306;2023-09-30T03:33:06;100389.72;;;14.42;100.00
63405;BME280;49541;57.840;12.306;2023-09-30T03:38:06;100391.88;;;14.38;100.00
63405;BME280;49541;57.840;12.306;2023-09-30T03:43:09;100384.25;;;14.60;100.00
63405;BME280;49541;57.840;12.306;2023-09-30T03:48:10;100383.09;;;14.70;100.00
63405;BME280;49541;57.840;12.306;2023-09-30T03:53:11;100381.75;;;14.66;100.00
63405;BME280;49541;57.840;12.306;2023-09-30T03:58:11;100375.06;;;14.70;100.00
63405;BME280;49541;57.840;12.306;2023-09-30T04:03:12;100378.56;;;14.71;100.00
63405;BME280;49541;57.840;12.306;2023-09-30T04:08:12;100379.97;;;14.41;100.00
63405;BME280;49541;57.840;12.306;2023-09-30T04:13:15;100368.94;;;14.36;100.00
63405;BME280;49541;57.840;12.306;2023-09-30T04:18:15;100355.84;;;14.24;100.00
63405;BME280;49541;57.840;12.306;2023-09-30T04:23:15;100354.22;;;14.40;100.00
63405;BME280;49541;57.840;12.306;2023-09-30T04:28:15;100355.19;;;14.30;100.00
63405;BME280;49541;57.840;12.306;2023-09-30T04:33:20;100342.47;;;14.24;100.00
63405;BME280;49541;57.840;12.306;2023-09-30T04:38:20;100337.63;;;14.36;100.00
63405;BME280;49541;57.840;12.306;2023-09-30T04:43:20;100346.28;;;14.22;100.00
63405;BME280;49541;57.840;12.306;2023-09-30T04:48:23;100345.13;;;14.24;100.00
63405;BME280;49541;57.840;12.306;2023-09-30T04:53:23;100325.06;;;14.37;100.00
63405;BME280;49541;57.840;12.306;2023-09-30T04:58:23;100330.44;;;14.45;100.00
63405;BME280;49541;57.840;12.306;2023-09-30T05:03:24;100324.78;;;14.48;100.00
63405;BME280;49541;57.840;12.306;2023-09-30T05:08:24;100324.41;;;14.43;100.00
63405;BME280;49541;57.840;12.306;2023-09-30T05:13:24;100333.09;;;14.37;100.00
63405;BME280;49541;57.840;12.306;2023-09-30T05:18:24;100337.97;;;14.49;100.00
63405;BME280;49541;57.840;12.306;2023-09-30T05:23:25;100344.97;;;14.34;100.00
63405;BME280;49541;57.840;12.306;2023-09-30T05:28:25;100369.50;;;14.05;100.00
63405;BME280;49541;57.840;12.306;2023-09-30T05:33:27;100371.44;;;13.95;100.00
63405;BME280;49541;57.840;12.306;2023-09-30T05:38:28;100381.56;;;14.09;100.00
63405;BME280;49541;57.840;12.306;2023-09-30T05:43:29;100375.91;;;14.20;100.00
63405;BME280;49541;57.840;12.306;2023-09-30T05:48:30;100387.63;;;14.27;100.00
63405;BME280;49541;57.840;12.306;2023-09-30T05:53:30;100366.84;;;14.13;100.00
63405;BME280;49541;57.840;12.306;2023-09-30T05:58:32;100349.06;;;14.04;100.00
63405;BME280;49541;57.840;12.306;2023-09-30T06:03:33;100364.81;;;14.07;100.00
63405;BME280;49541;57.840;12.306;2023-09-30T06:08:34;100349.44;;;14.09;100.00
63405;BME280;49541;57.840;12.306;2023-09-30T06:13:34;100357.28;;;14.10;100.00
63405;BME280;49541;57.840;12.306;2023-09-30T06:18:34;100363.72;;;13.91;100.00
63405;BME280;49541;57.840;12.306;2023-09-30T06:23:34;100358.16;;;13.77;100.00
63405;BME280;49541;57.840;12.306;2023-09-30T06:28:35;100361.72;;;13.85;100.00
63405;BME280;49541;57.840;12.306;2023-09-30T06:33:40;100364.06;;;13.88;100.00
63405;BME280;49541;57.840;12.306;2023-09-30T06:38:42;100361.06;;;13.91;100.00
63405;BME280;49541;57.840;12.306;2023-09-30T06:43:43;100370.44;;;13.87;100.00
63405;BME280;49541;57.840;12.306;2023-09-30T06:48:44;100370.38;;;14.13;100.00
63405;BME280;49541;57.840;12.306;2023-09-30T06:53:44;100375.09;;;14.20;100.00
63405;BME280;49541;57.840;12.306;2023-09-30T06:58:45;100381.97;;;14.39;100.00
63405;BME280;49541;57.840;12.306;2023-09-30T07:03:45;100389.06;;;14.48;100.00
63405;BME280;49541;57.840;12.306;2023-09-30T07:08:46;100378.22;;;14.58;100.00
63405;BME280;49541;57.840;12.306;2023-09-30T07:13:46;100451.19;;;14.17;100.00
63405;BME280;49541;57.840;12.306;2023-09-30T07:18:47;100416.38;;;14.09;100.00
63405;BME280;49541;57.840;12.306;2023-09-30T07:23:47;100427.50;;;13.96;100.00
63405;BME280;49541;57.840;12.306;2023-09-30T07:28:48;100434.47;;;14.23;100.00
63405;BME280;49541;57.840;12.306;2023-09-30T07:33:48;100436.53;;;14.29;100.00
63405;BME280;49541;57.840;12.306;2023-09-30T07:38:48;100438.25;;;14.47;100.00
63405;BME280;49541;57.840;12.306;2023-09-30T07:43:48;100434.19;;;14.26;100.00
63405;BME280;49541;57.840;12.306;2023-09-30T07:48:49;100449.19;;;14.19;100.00
63405;BME280;49541;57.840;12.306;2023-09-30T07:53:49;100456.22;;;14.20;100.00
63405;BME280;49541;57.840;12.306;2023-09-30T07:58:49;100447.28;;;14.38;100.00
63405;BME280;49541;57.840;12.306;2023-09-30T08:03:49;100443.81;;;14.53;100.00
63405;BME280;49541;57.840;12.306;2023-09-30T08:08:50;100441.28;;;14.44;100.00
63405;BME280;49541;57.840;12.306;2023-09-30T08:13:50;100452.75;;;14.70;100.00
63405;BME280;49541;57.840;12.306;2023-09-30T08:18:50;100460.09;;;14.60;100.00
63405;BME280;49541;57.840;12.306;2023-09-30T08:23:50;100469.19;;;14.67;100.00
63405;BME280;49541;57.840;12.306;2023-09-30T08:28:51;100462.31;;;14.65;100.00
63405;BME280;49541;57.840;12.306;2023-09-30T08:33:51;100474.06;;;14.80;100.00
63405;BME280;49541;57.840;12.306;2023-09-30T08:38:51;100478.78;;;14.86;100.00
63405;BME280;49541;57.840;12.306;2023-09-30T08:43:51;100479.09;;;14.83;100.00
63405;BME280;49541;57.840;12.306;2023-09-30T08:48:56;100475.91;;;14.88;100.00
63405;BME280;49541;57.840;12.306;2023-09-30T08:53:58;100515.50;;;15.02;100.00
63405;BME280;49541;57.840;12.306;2023-09-30T08:58:59;100490.75;;;15.33;100.00
63405;BME280;49541;57.840;12.306;2023-09-30T09:04:00;100485.91;;;15.45;100.00
63405;BME280;49541;57.840;12.306;2023-09-30T09:09:18;100496.78;;;15.27;100.00
63405;BME280;49541;57.840;12.306;2023-09-30T09:14:19;100508.16;;;15.21;100.00
63405;BME280;49541;57.840;12.306;2023-09-30T09:19:19;100497.78;;;15.18;100.00
63405;BME280;49541;57.840;12.306;2023-09-30T09:24:28;100487.06;;;15.34;100.00
63405;BME280;49541;57.840;12.306;2023-09-30T09:29:28;100492.44;;;15.34;100.00
63405;BME280;49541;57.840;12.306;2023-09-30T09:34:28;100511.03;;;15.44;100.00
63405;BME280;49541;57.840;12.306;2023-09-30T09:39:29;100494.44;;;15.56;100.00
63405;BME280;49541;57.840;12.306;2023-09-30T09:44:33;100494.09;;;15.68;100.00
63405;BME280;49541;57.840;12.306;2023-09-30T09:49:35;100511.94;;;15.85;100.00
63405;BME280;49541;57.840;12.306;2023-09-30T09:54:36;100524.31;;;15.53;100.00
63405;BME280;49541;57.840;12.306;2023-09-30T09:59:36;100531.19;;;15.81;100.00
63405;BME280;49541;57.840;12.306;2023-09-30T10:04:36;100522.47;;;16.11;100.00
63405;BME280;49541;57.840;12.306;2023-09-30T10:09:37;100525.34;;;15.85;100.00
63405;BME280;49541;57.840;12.306;2023-09-30T10:14:38;100552.81;;;15.87;100.00
63405;BME280;49541;57.840;12.306;2023-09-30T10:20:03;100548.47;;;16.03;100.00
63405;BME280;49541;57.840;12.306;2023-09-30T10:25:02;100556.34;;;16.12;100.00
63405;BME280;49541;57.840;12.306;2023-09-30T10:30:22;100556.50;;;16.19;100.00
63405;BME280;49541;57.840;12.306;2023-09-30T10:40:32;100574.44;;;15.69;100.00
63405;BME280;49541;57.840;12.306;2023-09-30T10:50:52;100563.25;;;16.07;100.00
63405;BME280;49541;57.840;12.306;2023-09-30T10:55:54;100583.88;;;15.82;100.00
63405;BME280;49541;57.840;12.306;2023-09-30T11:00:55;100579.97;;;15.68;100.00
63405;BME280;49541;57.840;12.306;2023-09-30T11:05:55;100586.41;;;16.00;100.00
63405;BME280;49541;57.840;12.306;2023-09-30T11:10:55;100606.53;;;16.20;100.00
63405;BME280;49541;57.840;12.306;2023-09-30T11:16:00;100589.25;;;15.90;100.00
63405;BME280;49541;57.840;12.306;2023-09-30T11:21:05;100586.72;;;15.80;100.00
63405;BME280;49541;57.840;12.306;2023-09-30T11:26:05;100619.28;;;16.02;100.00
63405;BME280;49541;57.840;12.306;2023-09-30T11:31:10;100596.44;;;16.30;100.00
63405;BME280;49541;57.840;12.306;2023-09-30T11:36:10;100593.78;;;16.22;100.00
63405;BME280;49541;57.840;12.306;2023-09-30T11:41:11;100618.06;;;16.45;100.00
63405;BME280;49541;57.840;12.306;2023-09-30T11:46:11;100612.22;;;16.33;100.00
63405;BME280;49541;57.840;12.306;2023-09-30T11:51:13;100601.63;;;16.24;100.00
63405;BME280;49541;57.840;12.306;2023-09-30T11:56:14;100640.78;;;16.10;100.00
63405;BME280;49541;57.840;12.306;2023-09-30T12:01:14;100645.13;;;15.94;100.00
63405;BME280;49541;57.840;12.306;2023-09-30T12:06:14;100621.75;;;16.52;100.00
63405;BME280;49541;57.840;12.306;2023-09-30T12:11:16;100625.31;;;16.04;100.00
63405;BME280;49541;57.840;12.306;2023-09-30T12:16:16;100625.66;;;15.92;100.00
63405;BME280;49541;57.840;12.306;2023-09-30T12:21:17;100630.66;;;16.45;100.00
63405;BME280;49541;57.840;12.306;2023-09-30T12:26:20;100616.94;;;16.23;100.00
63405;BME280;49541;57.840;12.306;2023-09-30T12:31:20;100621.81;;;16.11;100.00
63405;BME280;49541;57.840;12.306;2023-09-30T12:36:21;100622.13;;;16.08;100.00
63405;BME280;49541;57.840;12.306;2023-09-30T12:41:21;100627.84;;;15.97;100.00
63405;BME280;49541;57.840;12.306;2023-09-30T12:46:22;100632.69;;;16.34;100.00
63405;BME280;49541;57.840;12.306;2023-09-30T12:51:22;100638.59;;;16.13;100.00
63405;BME280;49541;57.840;12.306;2023-09-30T12:56:22;100629.16;;;16.42;100.00
63405;BME280;49541;57.840;12.306;2023-09-30T13:01:22;100657.88;;;16.09;100.00
63405;BME280;49541;57.840;12.306;2023-09-30T13:06:22;100645.81;;;15.96;100.00
63405;BME280;49541;57.840;12.306;2023-09-30T13:11:23;100635.03;;;15.80;100.00
63405;BME280;49541;57.840;12.306;2023-09-30T13:16:23;100653.19;;;15.86;100.00
63405;BME280;49541;57.840;12.306;2023-09-30T13:21:23;100651.50;;;16.02;100.00
63405;BME280;49541;57.840;12.306;2023-09-30T13:26:23;100629.19;;;16.17;100.00
63405;BME280;49541;57.840;12.306;2023-09-30T13:31:24;100651.84;;;15.99;100.00
63405;BME280;49541;57.840;12.306;2023-09-30T13:36:24;100641.06;;;15.74;100.00
63405;BME280;49541;57.840;12.306;2023-09-30T13:41:24;100640.25;;;15.82;100.00
63405;BME280;49541;57.840;12.306;2023-09-30T13:46:24;100655.50;;;15.89;100.00
63405;BME280;49541;57.840;12.306;2023-09-30T13:51:27;100662.25;;;16.34;100.00
63405;BME280;49541;57.840;12.306;2023-09-30T13:56:28;100651.84;;;16.31;100.00
63405;BME280;49541;57.840;12.306;2023-09-30T14:01:30;100640.78;;;16.10;100.00
63405;BME280;49541;57.840;12.306;2023-09-30T14:06:30;100650.34;;;16.29;100.00
63405;BME280;49541;57.840;12.306;2023-09-30T14:11:30;100651.50;;;16.10;100.00
63405;BME280;49541;57.840;12.306;2023-09-30T14:16:31;100652.81;;;15.73;100.00
63405;BME280;49541;57.840;12.306;2023-09-30T14:21:31;100656.88;;;16.02;100.00
63405;BME280;49541;57.840;12.306;2023-09-30T14:26:32;100640.75;;;16.43;100.00
63405;BME280;49541;57.840;12.306;2023-09-30T14:31:33;100647.44;;;16.55;100.00
63405;BME280;49541;57.840;12.306;2023-09-30T14:36:33;100643.78;;;16.23;100.00
63405;BME280;49541;57.840;12.306;2023-09-30T14:41:33;100649.66;;;16.18;100.00
63405;BME280;49541;57.840;12.306;2023-09-30T14:46:35;100647.13;;;15.76;100.00
63405;BME280;49541;57.840;12.306;2023-09-30T14:51:35;100653.69;;;15.98;100.00
63405;BME280;49541;57.840;12.306;2023-09-30T14:56:35;100651.16;;;15.80;100.00
63405;BME280;49541;57.840;12.306;2023-09-30T15:01:35;100675.88;;;15.49;100.00
63405;BME280;49541;57.840;12.306;2023-09-30T15:06:36;100658.94;;;15.57;100.00
63405;BME280;49541;57.840;12.306;2023-09-30T15:11:36;100680.91;;;15.52;100.00
63405;BME280;49541;57.840;12.306;2023-09-30T15:16:37;100658.97;;;15.65;100.00
63405;BME280;49541;57.840;12.306;2023-09-30T15:21:37;100686.31;;;15.61;100.00
63405;BME280;49541;57.840;12.306;2023-09-30T15:26:37;100681.41;;;15.48;100.00
63405;BME280;49541;57.840;12.306;2023-09-30T15:31:37;100690.28;;;15.40;100.00
63405;BME280;49541;57.840;12.306;2023-09-30T15:36:38;100691.03;;;15.24;100.00
63405;BME280;49541;57.840;12.306;2023-09-30T15:41:38;100703.31;;;15.35;100.00
63405;BME280;49541;57.840;12.306;2023-09-30T15:46:39;100698.78;;;15.35;100.00
63405;BME280;49541;57.840;12.306;2023-09-30T15:51:39;100696.59;;;15.31;100.00
63405;BME280;49541;57.840;12.306;2023-09-30T15:56:39;100701.94;;;15.31;100.00
63405;BME280;49541;57.840;12.306;2023-09-30T16:01:40;100711.78;;;15.56;100.00
63405;BME280;49541;57.840;12.306;2023-09-30T16:06:41;100718.44;;;15.44;100.00
63405;BME280;49541;57.840;12.306;2023-09-30T16:11:41;100717.78;;;15.50;100.00
63405;BME280;49541;57.840;12.306;2023-09-30T16:16:42;100738.94;;;15.53;100.00
63405;BME280;49541;57.840;12.306;2023-09-30T16:21:42;100736.47;;;15.26;100.00
63405;BME280;49541;57.840;12.306;2023-09-30T16:26:42;100727.78;;;15.32;100.00
63405;BME280;49541;57.840;12.306;2023-09-30T16:31:42;100722.13;;;15.43;100.00
63405;BME280;49541;57.840;12.306;2023-09-30T16:36:42;100723.91;;;15.26;100.00
63405;BME280;49541;57.840;12.306;2023-09-30T16:41:43;100727.69;;;15.15;100.00
63405;BME280;49541;57.840;12.306;2023-09-30T16:46:43;100723.34;;;15.49;100.00
63405;BME280;49541;57.840;12.306;2023-09-30T16:51:43;100727.91;;;14.96;100.00
63405;BME280;49541;57.840;12.306;2023-09-30T16:56:44;100725.00;;;15.15;100.00
63405;BME280;49541;57.840;12.306;2023-09-30T17:01:44;100739.44;;;15.14;100.00
63405;BME280;49541;57.840;12.306;2023-09-30T17:06:45;100728.19;;;14.85;100.00
63405;BME280;49541;57.840;12.306;2023-09-30T17:11:46;100727.25;;;14.94;100.00
63405;BME280;49541;57.840;12.306;2023-09-30T17:16:46;100742.81;;;15.17;100.00
63405;BME280;49541;57.840;12.306;2023-09-30T17:21:46;100747.72;;;15.03;100.00
63405;BME280;49541;57.840;12.306;2023-09-30T17:26:46;100766.06;;;14.90;100.00
63405;BME280;49541;57.840;12.306;2023-09-30T17:31:47;100749.31;;;14.88;100.00
63405;BME280;49541;57.840;12.306;2023-09-30T17:36:47;100745.22;;;14.76;100.00
63405;BME280;49541;57.840;12.306;2023-09-30T17:41:48;100762.22;;;14.66;100.00
63405;BME280;49541;57.840;12.306;2023-09-30T17:46:48;100769.63;;;14.72;100.00
63405;BME280;49541;57.840;12.306;2023-09-30T17:51:48;100774.44;;;14.87;100.00
63405;BME280;49541;57.840;12.306;2023-09-30T17:56:49;100766.63;;;14.93;100.00
63405;BME280;49541;57.840;12.306;2023-09-30T18:01:49;100761.41;;;14.92;100.00
63405;BME280;49541;57.840;12.306;2023-09-30T18:06:49;100757.75;;;15.01;100.00
63405;BME280;49541;57.840;12.306;2023-09-30T18:11:50;100772.88;;;15.02;100.00
63405;BME280;49541;57.840;12.306;2023-09-30T18:16:51;100767.31;;;14.78;100.00
63405;BME280;49541;57.840;12.306;2023-09-30T18:21:51;100775.22;;;15.05;100.00
63405;BME280;49541;57.840;12.306;2023-09-30T18:26:51;100773.16;;;14.99;100.00
63405;BME280;49541;57.840;12.306;2023-09-30T18:31:52;100767.88;;;15.07;100.00
63405;BME280;49541;57.840;12.306;2023-09-30T18:36:52;100764.50;;;15.05;100.00
63405;BME280;49541;57.840;12.306;2023-09-30T18:41:52;100772.69;;;14.78;100.00
63405;BME280;49541;57.840;12.306;2023-09-30T18:46:53;100767.56;;;14.66;100.00
63405;BME280;49541;57.840;12.306;2023-09-30T18:51:53;100755.47;;;14.80;100.00
63405;BME280;49541;57.840;12.306;2023-09-30T18:56:53;100752.81;;;14.88;100.00
63405;BME280;49541;57.840;12.306;2023-09-30T19:01:53;100747.84;;;14.93;100.00
63405;BME280;49541;57.840;12.306;2023-09-30T19:06:53;100746.00;;;14.94;100.00
63405;BME280;49541;57.840;12.306;2023-09-30T19:11:53;100752.53;;;14.91;100.00
63405;BME280;49541;57.840;12.306;2023-09-30T19:16:54;100759.25;;;14.95;100.00
63405;BME280;49541;57.840;12.306;2023-09-30T19:21:54;100752.66;;;14.90;100.00
63405;BME280;49541;57.840;12.306;2023-09-30T19:26:54;100762.91;;;14.68;100.00
63405;BME280;49541;57.840;12.306;2023-09-30T19:31:54;100754.78;;;14.78;100.00
63405;BME280;49541;57.840;12.306;2023-09-30T19:36:55;100758.97;;;14.81;100.00
63405;BME280;49541;57.840;12.306;2023-09-30T19:41:55;100751.97;;;14.88;100.00
63405;BME280;49541;57.840;12.306;2023-09-30T19:46:55;100745.72;;;15.05;100.00
63405;BME280;49541;57.840;12.306;2023-09-30T19:51:55;100750.13;;;14.88;100.00
63405;BME280;49541;57.840;12.306;2023-09-30T19:56:58;100755.00;;;14.85;100.00
63405;BME280;49541;57.840;12.306;2023-09-30T20:01:58;100740.84;;;15.01;100.00
63405;BME280;49541;57.840;12.306;2023-09-30T20:06:58;100745.03;;;15.03;100.00
63405;BME280;49541;57.840;12.306;2023-09-30T20:11:58;100745.09;;;15.11;100.00
63405;BME280;49541;57.840;12.306;2023-09-30T20:17:02;100740.97;;;14.91;100.00
63405;BME280;49541;57.840;12.306;2023-09-30T20:22:03;100739.22;;;14.82;100.00
63405;BME280;49541;57.840;12.306;2023-09-30T20:27:05;100733.22;;;14.88;100.00
63405;BME280;49541;57.840;12.306;2023-09-30T20:32:05;100749.31;;;14.88;100.00
63405;BME280;49541;57.840;12.306;2023-09-30T20:37:05;100759.72;;;14.91;100.00
63405;BME280;49541;57.840;12.306;2023-09-30T20:42:05;100762.16;;;15.02;100.00
63405;BME280;49541;57.840;12.306;2023-09-30T20:47:06;100757.13;;;15.07;100.00
63405;BME280;49541;57.840;12.306;2023-09-30T20:52:06;100756.66;;;15.12;100.00
63405;BME280;49541;57.840;12.306;2023-09-30T20:57:07;100753.34;;;14.92;100.00
63405;BME280;49541;57.840;12.306;2023-09-30T21:02:07;100764.41;;;14.89;100.00
63405;BME280;49541;57.840;12.306;2023-09-30T21:07:09;100759.28;;;14.78;100.00
63405;BME280;49541;57.840;12.306;2023-09-30T21:12:11;100762.28;;;14.74;100.00
63405;BME280;49541;57.840;12.306;2023-09-30T21:17:13;100766.13;;;14.72;100.00
63405;BME280;49541;57.840;12.306;2023-09-30T21:22:14;100770.88;;;14.78;100.00
63405;BME280;49541;57.840;12.306;2023-09-30T21:27:14;100771.59;;;14.88;100.00
63405;BME280;49541;57.840;12.306;2023-09-30T21:32:15;100766.13;;;14.72;100.00
63405;BME280;49541;57.840;12.306;2023-09-30T21:37:15;100774.00;;;14.73;100.00
63405;BME280;49541;57.840;12.306;2023-09-30T21:42:15;100758.16;;;14.80;100.00
63405;BME280;49541;57.840;12.306;2023-09-30T21:47:19;100758.63;;;14.76;100.00
63405;BME280;49541;57.840;12.306;2023-09-30T21:52:19;100749.91;;;14.56;100.00
63405;BME280;49541;57.840;12.306;2023-09-30T21:57:19;100754.72;;;14.34;100.00
63405;BME280;49541;57.840;12.306;2023-09-30T22:02:19;100760.97;;;14.43;100.00
63405;BME280;49541;57.840;12.306;2023-09-30T22:07:19;100755.34;;;14.46;100.00
63405;BME280;49541;57.840;12.306;2023-09-30T22:12:24;100756.50;;;14.61;100.00
63405;BME280;49541;57.840;12.306;2023-09-30T22:17:24;100762.41;;;14.91;100.00
63405;BME280;49541;57.840;12.306;2023-09-30T22:22:24;100756.16;;;15.08;100.00
63405;BME280;49541;57.840;12.306;2023-09-30T22:27:24;100759.53;;;14.84;100.00
63405;BME280;49541;57.840;12.306;2023-09-30T22:32:24;100757.59;;;14.77;100.00
63405;BME280;49541;57.840;12.306;2023-09-30T22:37:25;100760.03;;;14.88;100.00
63405;BME280;49541;57.840;12.306;2023-09-30T22:42:25;100757.88;;;14.91;100.00
63405;BME280;49541;57.840;12.306;2023-09-30T22:47:25;100758.22;;;14.70;100.00
63405;BME280;49541;57.840;12.306;2023-09-30T22:52:26;100760.00;;;14.62;100.00
63405;BME280;49541;57.840;12.306;2023-09-30T22:57:26;100768.66;;;14.38;100.00
63405;BME280;49541;57.840;12.306;2023-09-30T23:02:26;100778.97;;;14.14;100.00
63405;BME280;49541;57.840;12.306;2023-09-30T23:07:27;100769.56;;;14.28;100.00
63405;BME280;49541;57.840;12.306;2023-09-30T23:12:28;100776.75;;;14.46;100.00
63405;BME280;49541;57.840;12.306;2023-09-30T23:17:28;100771.09;;;14.49;100.00
63405;BME280;49541;57.840;12.306;2023-09-30T23:22:28;100766.00;;;14.82;100.00
63405;BME280;49541;57.840;12.306;2023-09-30T23:27:28;100777.25;;;14.59;100.00
63405;BME280;49541;57.840;12.306;2023-09-30T23:32:29;100772.78;;;14.14;100.00
63405;BME280;49541;57.840;12.306;2023-09-30T23:37:30;100767.88;;;14.45;100.00
63405;BME280;49541;57.840;12.306;2023-09-30T23:42:30;100768.03;;;14.08;100.00
63405;BME280;49541;57.840;12.306;2023-09-30T23:47:30;100770.91;;;13.97;100.00
63405;BME280;49541;57.840;12.306;2023-09-30T23:52:36;100775.47;;;13.86;100.00
63405;BME280;49541;57.840;12.306;2023-09-30T23:57:37;100774.75;;;14.12;100.00
